sensor_id;sensor_type;location;lat;lon;timestamp;pressure;altitude;pressure_sealevel;temperature;humidity
15998;BME280;8103;51.340;12.326;2023-03-20T00:01:24;66331.75;;;-142.58;100.00
15998;BME280;8103;51.340;12.326;2023-03-20T00:03:53;66331.75;;;-142.58;100.00
15998;BME280;8103;51.340;12.326;2023-03-20T00:06:24;66331.75;;;-142.58;100.00
15998;BME280;8103;51.340;12.326;2023-03-20T00:08:54;66331.75;;;-142.58;100.00
15998;BME280;8103;51.340;12.326;2023-03-20T00:11:27;66331.75;;;-142.58;100.00
15998;BME280;8103;51.340;12.326;2023-03-20T00:14:13;66331.75;;;-142.58;100.00
15998;BME280;8103;51.340;12.326;2023-03-20T00:16:47;66331.75;;;-142.58;100.00
15998;BME280;8103;51.340;12.326;2023-03-20T00:19:21;66331.75;;;-142.58;100.00
15998;BME280;8103;51.340;12.326;2023-03-20T00:21:57;66331.75;;;-142.58;100.00
15998;BME280;8103;51.340;12.326;2023-03-20T00:24:25;66331.75;;;-142.58;100.00
15998;BME280;8103;51.340;12.326;2023-03-20T00:26:53;66331.75;;;-142.58;100.00
15998;BME280;8103;51.340;12.326;2023-03-20T00:29:25;66331.75;;;-142.58;100.00
15998;BME280;8103;51.340;12.326;2023-03-20T00:31:54;66331.75;;;-142.58;100.00
15998;BME280;8103;51.340;12.326;2023-03-20T00:34:25;66331.75;;;-142.58;100.00
15998;BME280;8103;51.340;12.326;2023-03-20T00:36:55;66331.75;;;-142.58;100.00
15998;BME280;8103;51.340;12.326;2023-03-20T00:39:23;66331.75;;;-142.58;100.00
15998;BME280;8103;51.340;12.326;2023-03-20T00:41:57;66331.75;;;-142.58;100.00
15998;BME280;8103;51.340;12.326;2023-03-20T00:44:31;66331.75;;;-142.58;100.00
15998;BME280;8103;51.340;12.326;2023-03-20T00:47:03;66331.75;;;-142.58;100.00
15998;BME280;8103;51.340;12.326;2023-03-20T00:49:34;66331.75;;;-142.58;100.00
15998;BME280;8103;51.340;12.326;2023-03-20T00:52:02;66331.75;;;-142.58;100.00
15998;BME280;8103;51.340;12.326;2023-03-20T00:54:30;66331.75;;;-142.58;100.00
15998;BME280;8103;51.340;12.326;2023-03-20T00:57:03;66331.75;;;-142.58;100.00
15998;BME280;8103;51.340;12.326;2023-03-20T00:59:52;66331.75;;;-142.58;100.00
15998;BME280;8103;51.340;12.326;2023-03-20T01:02:25;66331.75;;;-142.58;100.00
15998;BME280;8103;51.340;12.326;2023-03-20T01:04:54;66331.75;;;-142.58;100.00
15998;BME280;8103;51.340;12.326;2023-03-20T01:07:21;66331.75;;;-142.58;100.00
15998;BME280;8103;51.340;12.326;2023-03-20T01:09:48;66331.75;;;-142.58;100.00
15998;BME280;8103;51.340;12.326;2023-03-20T01:12:15;66331.75;;;-142.58;100.00
15998;BME280;8103;51.340;12.326;2023-03-20T01:14:43;66331.75;;;-142.58;100.00
15998;BME280;8103;51.340;12.326;2023-03-20T01:17:21;66331.75;;;-142.58;100.00
15998;BME280;8103;51.340;12.326;2023-03-20T01:19:49;66331.75;;;-142.58;100.00
15998;BME280;8103;51.340;12.326;2023-03-20T01:22:15;66331.75;;;-142.58;100.00
15998;BME280;8103;51.340;12.326;2023-03-20T01:24:46;66331.75;;;-142.58;100.00
15998;BME280;8103;51.340;12.326;2023-03-20T01:27:16;66331.75;;;-142.58;100.00
15998;BME280;8103;51.340;12.326;2023-03-20T01:29:44;66331.75;;;-142.58;100.00
15998;BME280;8103;51.340;12.326;2023-03-20T01:32:16;66331.75;;;-142.58;100.00
15998;BME280;8103;51.340;12.326;2023-03-20T01:34:43;66331.75;;;-142.58;100.00
15998;BME280;8103;51.340;12.326;2023-03-20T01:37:17;66331.75;;;-142.58;100.00
15998;BME280;8103;51.340;12.326;2023-03-20T01:39:44;66331.75;;;-142.58;100.00
15998;BME280;8103;51.340;12.326;2023-03-20T01:42:14;66331.75;;;-142.58;100.00
15998;BME280;8103;51.340;12.326;2023-03-20T01:44:42;66331.75;;;-142.58;100.00
15998;BME280;8103;51.340;12.326;2023-03-20T01:47:23;66331.75;;;-142.58;100.00
15998;BME280;8103;51.340;12.326;2023-03-20T01:53:12;66331.75;;;-142.58;100.00
15998;BME280;8103;51.340;12.326;2023-03-20T01:55:44;66331.75;;;-142.58;100.00
15998;BME280;8103;51.340;12.326;2023-03-20T01:58:21;66331.75;;;-142.58;100.00
15998;BME280;8103;51.340;12.326;2023-03-20T02:00:50;66331.75;;;-142.58;100.00
15998;BME280;8103;51.340;12.326;2023-03-20T02:03:18;66331.75;;;-142.58;100.00
15998;BME280;8103;51.340;12.326;2023-03-20T02:05:47;66331.75;;;-142.58;100.00
15998;BME280;8103;51.340;12.326;2023-03-20T02:08:28;66331.75;;;-142.58;100.00
15998;BME280;8103;51.340;12.326;2023-03-20T02:10:58;66331.75;;;-142.58;100.00
15998;BME280;8103;51.340;12.326;2023-03-20T02:13:28;66331.75;;;-142.58;100.00
15998;BME280;8103;51.340;12.326;2023-03-20T02:16:13;66331.75;;;-142.58;100.00
15998;BME280;8103;51.340;12.326;2023-03-20T02:18:44;66331.75;;;-142.58;100.00
15998;BME280;8103;51.340;12.326;2023-03-20T02:22:00;66331.75;;;-142.58;100.00
15998;BME280;8103;51.340;12.326;2023-03-20T02:28:19;66331.75;;;-142.58;100.00
15998;BME280;8103;51.340;12.326;2023-03-20T02:31:28;66331.75;;;-142.58;100.00
15998;BME280;8103;51.340;12.326;2023-03-20T02:37:35;66331.75;;;-142.58;100.00
15998;BME280;8103;51.340;12.326;2023-03-20T02:43:11;66331.75;;;-142.58;100.00
15998;BME280;8103;51.340;12.326;2023-03-20T02:49:20;66331.75;;;-142.58;100.00
15998;BME280;8103;51.340;12.326;2023-03-20T02:52:05;66331.75;;;-142.58;100.00
15998;BME280;8103;51.340;12.326;2023-03-20T02:54:53;66331.75;;;-142.58;100.00
15998;BME280;8103;51.340;12.326;2023-03-20T02:57:41;66331.75;;;-142.58;100.00
15998;BME280;8103;51.340;12.326;2023-03-20T03:00:34;66331.75;;;-142.58;100.00
15998;BME280;8103;51.340;12.326;2023-03-20T03:03:19;66331.75;;;-142.58;100.00
15998;BME280;8103;51.340;12.326;2023-03-20T03:06:05;66331.75;;;-142.58;100.00
15998;BME280;8103;51.340;12.326;2023-03-20T03:08:40;66331.75;;;-142.58;100.00
15998;BME280;8103;51.340;12.326;2023-03-20T03:11:10;66331.75;;;-142.58;100.00
15998;BME280;8103;51.340;12.326;2023-03-20T03:13:48;66331.75;;;-142.58;100.00
15998;BME280;8103;51.340;12.326;2023-03-20T03:16:28;66331.75;;;-142.58;100.00
15998;BME280;8103;51.340;12.326;2023-03-20T03:19:12;66331.75;;;-142.58;100.00
15998;BME280;8103;51.340;12.326;2023-03-20T03:21:45;66331.75;;;-142.58;100.00
15998;BME280;8103;51.340;12.326;2023-03-20T03:24:37;66331.75;;;-142.58;100.00
15998;BME280;8103;51.340;12.326;2023-03-20T03:27:25;66331.75;;;-142.58;100.00
15998;BME280;8103;51.340;12.326;2023-03-20T03:30:00;66331.75;;;-142.58;100.00
15998;BME280;8103;51.340;12.326;2023-03-20T03:32:34;66331.75;;;-142.58;100.00
15998;BME280;8103;51.340;12.326;2023-03-20T03:35:05;66331.75;;;-142.58;100.00
15998;BME280;8103;51.340;12.326;2023-03-20T03:38:15;66331.75;;;-142.58;100.00
15998;BME280;8103;51.340;12.326;2023-03-20T03:46:44;66331.75;;;-142.58;100.00
15998;BME280;8103;51.340;12.326;2023-03-20T03:49:27;66331.75;;;-142.58;100.00
15998;BME280;8103;51.340;12.326;2023-03-20T03:52:02;66331.75;;;-142.58;100.00
15998;BME280;8103;51.340;12.326;2023-03-20T03:54:44;66331.75;;;-142.58;100.00
15998;BME280;8103;51.340;12.326;2023-03-20T03:57:20;66331.75;;;-142.58;100.00
15998;BME280;8103;51.340;12.326;2023-03-20T03:59:51;66331.75;;;-142.58;100.00
15998;BME280;8103;51.340;12.326;2023-03-20T04:02:21;66331.75;;;-142.58;100.00
15998;BME280;8103;51.340;12.326;2023-03-20T04:04:52;66331.75;;;-142.58;100.00
15998;BME280;8103;51.340;12.326;2023-03-20T04:07:20;66331.75;;;-142.58;100.00
15998;BME280;8103;51.340;12.326;2023-03-20T04:09:47;66331.75;;;-142.58;100.00
15998;BME280;8103;51.340;12.326;2023-03-20T04:12:39;66331.75;;;-142.58;100.00
15998;BME280;8103;51.340;12.326;2023-03-20T04:15:07;66331.75;;;-142.58;100.00
15998;BME280;8103;51.340;12.326;2023-03-20T04:17:34;66331.75;;;-142.58;100.00
15998;BME280;8103;51.340;12.326;2023-03-20T04:20:02;66331.75;;;-142.58;100.00
15998;BME280;8103;51.340;12.326;2023-03-20T04:22:29;66331.75;;;-142.58;100.00
15998;BME280;8103;51.340;12.326;2023-03-20T04:24:56;66331.75;;;-142.58;100.00
15998;BME280;8103;51.340;12.326;2023-03-20T04:27:23;66331.75;;;-142.58;100.00
15998;BME280;8103;51.340;12.326;2023-03-20T04:29:50;66331.75;;;-142.58;100.00
15998;BME280;8103;51.340;12.326;2023-03-20T04:32:17;66331.75;;;-142.58;100.00
15998;BME280;8103;51.340;12.326;2023-03-20T04:34:44;66331.75;;;-142.58;100.00
15998;BME280;8103;51.340;12.326;2023-03-20T04:41:17;66331.75;;;-142.58;100.00
15998;BME280;8103;51.340;12.326;2023-03-20T04:43:46;66331.75;;;-142.58;100.00
15998;BME280;8103;51.340;12.326;2023-03-20T04:46:13;66331.75;;;-142.58;100.00
15998;BME280;8103;51.340;12.326;2023-03-20T04:48:40;66331.75;;;-142.58;100.00
15998;BME280;8103;51.340;12.326;2023-03-20T04:51:07;66331.75;;;-142.58;100.00
15998;BME280;8103;51.340;12.326;2023-03-20T04:53:34;66331.75;;;-142.58;100.00
15998;BME280;8103;51.340;12.326;2023-03-20T04:56:01;66331.75;;;-142.58;100.00
15998;BME280;8103;51.340;12.326;2023-03-20T04:58:28;66331.75;;;-142.58;100.00
15998;BME280;8103;51.340;12.326;2023-03-20T05:00:55;66331.75;;;-142.58;100.00
15998;BME280;8103;51.340;12.326;2023-03-20T05:03:21;66331.75;;;-142.58;100.00
15998;BME280;8103;51.340;12.326;2023-03-20T05:05:49;66331.75;;;-142.58;100.00
15998;BME280;8103;51.340;12.326;2023-03-20T05:08:16;66331.75;;;-142.58;100.00
15998;BME280;8103;51.340;12.326;2023-03-20T05:10:43;66331.75;;;-142.58;100.00
15998;BME280;8103;51.340;12.326;2023-03-20T05:13:10;66331.75;;;-142.58;100.00
15998;BME280;8103;51.340;12.326;2023-03-20T05:15:36;66331.75;;;-142.58;100.00
15998;BME280;8103;51.340;12.326;2023-03-20T05:18:03;66331.75;;;-142.58;100.00
15998;BME280;8103;51.340;12.326;2023-03-20T05:20:30;66331.75;;;-142.58;100.00
15998;BME280;8103;51.340;12.326;2023-03-20T05:27:03;66331.75;;;-142.58;100.00
15998;BME280;8103;51.340;12.326;2023-03-20T05:29:29;66331.75;;;-142.58;100.00
15998;BME280;8103;51.340;12.326;2023-03-20T05:31:56;66331.75;;;-142.58;100.00
15998;BME280;8103;51.340;12.326;2023-03-20T05:34:23;66331.75;;;-142.58;100.00
15998;BME280;8103;51.340;12.326;2023-03-20T05:36:50;66331.75;;;-142.58;100.00
15998;BME280;8103;51.340;12.326;2023-03-20T05:39:17;66331.75;;;-142.58;100.00
15998;BME280;8103;51.340;12.326;2023-03-20T05:41:44;66331.75;;;-142.58;100.00
15998;BME280;8103;51.340;12.326;2023-03-20T05:44:11;66331.75;;;-142.58;100.00
15998;BME280;8103;51.340;12.326;2023-03-20T05:46:38;66331.75;;;-142.58;100.00
15998;BME280;8103;51.340;12.326;2023-03-20T05:49:05;66331.75;;;-142.58;100.00
15998;BME280;8103;51.340;12.326;2023-03-20T05:51:32;66331.75;;;-142.58;100.00
15998;BME280;8103;51.340;12.326;2023-03-20T05:53:59;66331.75;;;-142.58;100.00
15998;BME280;8103;51.340;12.326;2023-03-20T05:56:26;66331.75;;;-142.58;100.00
15998;BME280;8103;51.340;12.326;2023-03-20T05:58:52;66331.75;;;-142.58;100.00
15998;BME280;8103;51.340;12.326;2023-03-20T06:01:19;66331.75;;;-142.58;100.00
15998;BME280;8103;51.340;12.326;2023-03-20T06:03:47;66331.75;;;-142.58;100.00
15998;BME280;8103;51.340;12.326;2023-03-20T06:06:16;66331.75;;;-142.58;100.00
15998;BME280;8103;51.340;12.326;2023-03-20T06:08:43;66331.75;;;-142.58;100.00
15998;BME280;8103;51.340;12.326;2023-03-20T06:11:10;66331.75;;;-142.58;100.00
15998;BME280;8103;51.340;12.326;2023-03-20T06:13:37;66331.75;;;-142.58;100.00
15998;BME280;8103;51.340;12.326;2023-03-20T06:16:04;66331.75;;;-142.58;100.00
15998;BME280;8103;51.340;12.326;2023-03-20T06:18:31;66331.75;;;-142.58;100.00
15998;BME280;8103;51.340;12.326;2023-03-20T06:20:58;66331.75;;;-142.58;100.00
15998;BME280;8103;51.340;12.326;2023-03-20T06:23:25;66331.75;;;-142.58;100.00
15998;BME280;8103;51.340;12.326;2023-03-20T06:25:53;66331.75;;;-142.58;100.00
15998;BME280;8103;51.340;12.326;2023-03-20T06:28:20;66331.75;;;-142.58;100.00
15998;BME280;8103;51.340;12.326;2023-03-20T06:30:51;66331.75;;;-142.58;100.00
15998;BME280;8103;51.340;12.326;2023-03-20T06:33:19;66331.75;;;-142.58;100.00
15998;BME280;8103;51.340;12.326;2023-03-20T06:35:46;66331.75;;;-142.58;100.00
15998;BME280;8103;51.340;12.326;2023-03-20T06:38:13;66331.75;;;-142.58;100.00
15998;BME280;8103;51.340;12.326;2023-03-20T06:40:41;66331.75;;;-142.58;100.00
15998;BME280;8103;51.340;12.326;2023-03-20T06:43:08;66331.75;;;-142.58;100.00
15998;BME280;8103;51.340;12.326;2023-03-20T06:45:38;66331.75;;;-142.58;100.00
15998;BME280;8103;51.340;12.326;2023-03-20T06:48:07;66331.75;;;-142.58;100.00
15998;BME280;8103;51.340;12.326;2023-03-20T06:50:34;66331.75;;;-142.58;100.00
15998;BME280;8103;51.340;12.326;2023-03-20T06:53:03;66331.75;;;-142.58;100.00
15998;BME280;8103;51.340;12.326;2023-03-20T06:55:30;66331.75;;;-142.58;100.00
15998;BME280;8103;51.340;12.326;2023-03-20T06:57:58;66331.75;;;-142.58;100.00
15998;BME280;8103;51.340;12.326;2023-03-20T07:00:26;66331.75;;;-142.58;100.00
15998;BME280;8103;51.340;12.326;2023-03-20T07:02:53;66331.75;;;-142.58;100.00
15998;BME280;8103;51.340;12.326;2023-03-20T07:05:22;66331.75;;;-142.58;100.00
15998;BME280;8103;51.340;12.326;2023-03-20T07:07:49;66331.75;;;-142.58;100.00
15998;BME280;8103;51.340;12.326;2023-03-20T07:10:16;66331.75;;;-142.58;100.00
15998;BME280;8103;51.340;12.326;2023-03-20T07:12:43;66331.75;;;-142.58;100.00
15998;BME280;8103;51.340;12.326;2023-03-20T07:15:10;66331.75;;;-142.58;100.00
15998;BME280;8103;51.340;12.326;2023-03-20T07:21:44;66331.75;;;-142.58;100.00
15998;BME280;8103;51.340;12.326;2023-03-20T07:24:11;66331.75;;;-142.58;100.00
15998;BME280;8103;51.340;12.326;2023-03-20T07:26:38;66331.75;;;-142.58;100.00
15998;BME280;8103;51.340;12.326;2023-03-20T07:29:06;66331.75;;;-142.58;100.00
15998;BME280;8103;51.340;12.326;2023-03-20T07:31:34;66331.75;;;-142.58;100.00
15998;BME280;8103;51.340;12.326;2023-03-20T07:38:01;66331.75;;;-142.58;100.00
15998;BME280;8103;51.340;12.326;2023-03-20T07:40:28;66331.75;;;-142.58;100.00
15998;BME280;8103;51.340;12.326;2023-03-20T07:42:55;66331.75;;;-142.58;100.00
15998;BME280;8103;51.340;12.326;2023-03-20T07:45:22;66331.75;;;-142.58;100.00
15998;BME280;8103;51.340;12.326;2023-03-20T07:51:55;66331.75;;;-142.58;100.00
15998;BME280;8103;51.340;12.326;2023-03-20T07:54:22;66331.75;;;-142.58;100.00
15998;BME280;8103;51.340;12.326;2023-03-20T07:56:49;66331.75;;;-142.58;100.00
15998;BME280;8103;51.340;12.326;2023-03-20T07:59:17;66331.75;;;-142.58;100.00
15998;BME280;8103;51.340;12.326;2023-03-20T08:01:44;66331.75;;;-142.58;100.00
15998;BME280;8103;51.340;12.326;2023-03-20T08:04:11;66331.75;;;-142.58;100.00
15998;BME280;8103;51.340;12.326;2023-03-20T08:06:38;66331.75;;;-142.58;100.00
15998;BME280;8103;51.340;12.326;2023-03-20T08:09:05;66331.75;;;-142.58;100.00
15998;BME280;8103;51.340;12.326;2023-03-20T08:11:32;66331.75;;;-142.58;100.00
15998;BME280;8103;51.340;12.326;2023-03-20T08:14:00;66331.75;;;-142.58;100.00
15998;BME280;8103;51.340;12.326;2023-03-20T08:16:27;66331.75;;;-142.58;100.00
15998;BME280;8103;51.340;12.326;2023-03-20T08:18:54;66331.75;;;-142.58;100.00
15998;BME280;8103;51.340;12.326;2023-03-20T08:21:31;66331.75;;;-142.58;100.00
15998;BME280;8103;51.340;12.326;2023-03-20T08:23:58;66331.75;;;-142.58;100.00
15998;BME280;8103;51.340;12.326;2023-03-20T08:26:27;66331.75;;;-142.58;100.00
15998;BME280;8103;51.340;12.326;2023-03-20T08:28:54;66331.75;;;-142.58;100.00
15998;BME280;8103;51.340;12.326;2023-03-20T08:31:21;66331.75;;;-142.58;100.00
15998;BME280;8103;51.340;12.326;2023-03-20T08:33:48;66331.75;;;-142.58;100.00
15998;BME280;8103;51.340;12.326;2023-03-20T08:36:16;66331.75;;;-142.58;100.00
15998;BME280;8103;51.340;12.326;2023-03-20T08:42:45;66331.75;;;-142.58;100.00
15998;BME280;8103;51.340;12.326;2023-03-20T08:45:12;66331.75;;;-142.58;100.00
15998;BME280;8103;51.340;12.326;2023-03-20T08:47:39;66331.75;;;-142.58;100.00
15998;BME280;8103;51.340;12.326;2023-03-20T08:50:07;66331.75;;;-142.58;100.00
15998;BME280;8103;51.340;12.326;2023-03-20T08:52:34;66331.75;;;-142.58;100.00
15998;BME280;8103;51.340;12.326;2023-03-20T08:55:02;66331.75;;;-142.58;100.00
15998;BME280;8103;51.340;12.326;2023-03-20T08:57:29;66331.75;;;-142.58;100.00
15998;BME280;8103;51.340;12.326;2023-03-20T08:59:56;66331.75;;;-142.58;100.00
15998;BME280;8103;51.340;12.326;2023-03-20T09:02:23;66331.75;;;-142.58;100.00
15998;BME280;8103;51.340;12.326;2023-03-20T09:04:50;66331.75;;;-142.58;100.00
15998;BME280;8103;51.340;12.326;2023-03-20T09:07:17;66331.75;;;-142.58;100.00
15998;BME280;8103;51.340;12.326;2023-03-20T09:13:50;66331.75;;;-142.58;100.00
15998;BME280;8103;51.340;12.326;2023-03-20T09:16:17;66331.75;;;-142.58;100.00
15998;BME280;8103;51.340;12.326;2023-03-20T09:18:44;66331.75;;;-142.58;100.00
15998;BME280;8103;51.340;12.326;2023-03-20T09:21:11;66331.75;;;-142.58;100.00
15998;BME280;8103;51.340;12.326;2023-03-20T09:23:37;66331.75;;;-142.58;100.00
15998;BME280;8103;51.340;12.326;2023-03-20T09:26:04;66331.75;;;-142.58;100.00
15998;BME280;8103;51.340;12.326;2023-03-20T09:28:31;66331.75;;;-142.58;100.00
15998;BME280;8103;51.340;12.326;2023-03-20T09:30:59;66331.75;;;-142.58;100.00
15998;BME280;8103;51.340;12.326;2023-03-20T09:33:27;66331.75;;;-142.58;100.00
15998;BME280;8103;51.340;12.326;2023-03-20T09:40:00;66331.75;;;-142.58;100.00
15998;BME280;8103;51.340;12.326;2023-03-20T09:42:54;66331.75;;;-142.58;100.00
15998;BME280;8103;51.340;12.326;2023-03-20T09:46:02;66331.75;;;-142.58;100.00
15998;BME280;8103;51.340;12.326;2023-03-20T09:48:45;66331.75;;;-142.58;100.00
15998;BME280;8103;51.340;12.326;2023-03-20T09:56:53;66331.75;;;-142.58;100.00
15998;BME280;8103;51.340;12.326;2023-03-20T09:59:22;66331.75;;;-142.58;100.00
15998;BME280;8103;51.340;12.326;2023-03-20T10:01:59;66331.75;;;-142.58;100.00
15998;BME280;8103;51.340;12.326;2023-03-20T10:04:28;66331.75;;;-142.58;100.00
15998;BME280;8103;51.340;12.326;2023-03-20T10:06:56;66331.75;;;-142.58;100.00
15998;BME280;8103;51.340;12.326;2023-03-20T10:09:26;66331.75;;;-142.58;100.00
15998;BME280;8103;51.340;12.326;2023-03-20T10:14:52;66331.75;;;-142.58;100.00
15998;BME280;8103;51.340;12.326;2023-03-20T10:17:47;66331.75;;;-142.58;100.00
15998;BME280;8103;51.340;12.326;2023-03-20T10:20:42;66331.75;;;-142.58;100.00
15998;BME280;8103;51.340;12.326;2023-03-20T10:23:35;66331.75;;;-142.58;100.00
15998;BME280;8103;51.340;12.326;2023-03-20T10:26:13;66331.75;;;-142.58;100.00
15998;BME280;8103;51.340;12.326;2023-03-20T10:28:59;66331.75;;;-142.58;100.00
15998;BME280;8103;51.340;12.326;2023-03-20T10:31:54;66331.75;;;-142.58;100.00
15998;BME280;8103;51.340;12.326;2023-03-20T10:37:24;66331.75;;;-142.58;100.00
15998;BME280;8103;51.340;12.326;2023-03-20T10:40:33;66331.75;;;-142.58;100.00
15998;BME280;8103;51.340;12.326;2023-03-20T10:43:14;66331.75;;;-142.58;100.00
15998;BME280;8103;51.340;12.326;2023-03-20T10:45:50;66331.75;;;-142.58;100.00
15998;BME280;8103;51.340;12.326;2023-03-20T10:48:32;66331.75;;;-142.58;100.00
15998;BME280;8103;51.340;12.326;2023-03-20T10:51:02;66331.75;;;-142.58;100.00
15998;BME280;8103;51.340;12.326;2023-03-20T10:53:48;66331.75;;;-142.58;100.00
15998;BME280;8103;51.340;12.326;2023-03-20T10:56:39;66331.75;;;-142.58;100.00
15998;BME280;8103;51.340;12.326;2023-03-20T10:59:23;66331.75;;;-142.58;100.00
15998;BME280;8103;51.340;12.326;2023-03-20T11:01:50;66331.75;;;-142.58;100.00
15998;BME280;8103;51.340;12.326;2023-03-20T11:04:17;66331.75;;;-142.58;100.00
15998;BME280;8103;51.340;12.326;2023-03-20T11:07:00;66331.75;;;-142.58;100.00
15998;BME280;8103;51.340;12.326;2023-03-20T11:09:28;66331.75;;;-142.58;100.00
15998;BME280;8103;51.340;12.326;2023-03-20T11:12:01;66331.75;;;-142.58;100.00
15998;BME280;8103;51.340;12.326;2023-03-20T11:14:35;66331.75;;;-142.58;100.00
15998;BME280;8103;51.340;12.326;2023-03-20T11:17:05;66331.75;;;-142.58;100.00
15998;BME280;8103;51.340;12.326;2023-03-20T11:19:35;66331.75;;;-142.58;100.00
15998;BME280;8103;51.340;12.326;2023-03-20T11:22:23;66331.75;;;-142.58;100.00
15998;BME280;8103;51.340;12.326;2023-03-20T11:24:55;66331.75;;;-142.58;100.00
15998;BME280;8103;51.340;12.326;2023-03-20T11:27:30;66331.75;;;-142.58;100.00
15998;BME280;8103;51.340;12.326;2023-03-20T11:30:02;66331.75;;;-142.58;100.00
15998;BME280;8103;51.340;12.326;2023-03-20T11:32:34;66331.75;;;-142.58;100.00
15998;BME280;8103;51.340;12.326;2023-03-20T11:35:18;66331.75;;;-142.58;100.00
15998;BME280;8103;51.340;12.326;2023-03-20T11:37:49;66331.75;;;-142.58;100.00
15998;BME280;8103;51.340;12.326;2023-03-20T11:40:29;66331.75;;;-142.58;100.00
15998;BME280;8103;51.340;12.326;2023-03-20T11:45:35;66331.75;;;-142.58;100.00
15998;BME280;8103;51.340;12.326;2023-03-20T11:48:15;66331.75;;;-142.58;100.00
15998;BME280;8103;51.340;12.326;2023-03-20T11:51:04;66331.75;;;-142.58;100.00
15998;BME280;8103;51.340;12.326;2023-03-20T11:53:57;66331.75;;;-142.58;100.00
15998;BME280;8103;51.340;12.326;2023-03-20T11:56:31;66331.75;;;-142.58;100.00
15998;BME280;8103;51.340;12.326;2023-03-20T11:59:12;66331.75;;;-142.58;100.00
15998;BME280;8103;51.340;12.326;2023-03-20T12:01:47;66331.75;;;-142.58;100.00
15998;BME280;8103;51.340;12.326;2023-03-20T12:04:26;66331.75;;;-142.58;100.00
15998;BME280;8103;51.340;12.326;2023-03-20T12:07:04;66331.75;;;-142.58;100.00
15998;BME280;8103;51.340;12.326;2023-03-20T12:09:51;66331.75;;;-142.58;100.00
15998;BME280;8103;51.340;12.326;2023-03-20T12:12:53;66331.75;;;-142.58;100.00
15998;BME280;8103;51.340;12.326;2023-03-20T12:15:31;66331.75;;;-142.58;100.00
15998;BME280;8103;51.340;12.326;2023-03-20T12:21:10;66331.75;;;-142.58;100.00
15998;BME280;8103;51.340;12.326;2023-03-20T12:24:01;66331.75;;;-142.58;100.00
15998;BME280;8103;51.340;12.326;2023-03-20T12:30:05;66331.75;;;-142.58;100.00
15998;BME280;8103;51.340;12.326;2023-03-20T12:33:10;66331.75;;;-142.58;100.00
15998;BME280;8103;51.340;12.326;2023-03-20T12:35:45;66331.75;;;-142.58;100.00
15998;BME280;8103;51.340;12.326;2023-03-20T12:38:37;66331.75;;;-142.58;100.00
15998;BME280;8103;51.340;12.326;2023-03-20T12:41:52;66331.75;;;-142.58;100.00
15998;BME280;8103;51.340;12.326;2023-03-20T12:44:37;66331.75;;;-142.58;100.00
15998;BME280;8103;51.340;12.326;2023-03-20T12:47:28;66331.75;;;-142.58;100.00
15998;BME280;8103;51.340;12.326;2023-03-20T12:50:27;66331.75;;;-142.58;100.00
15998;BME280;8103;51.340;12.326;2023-03-20T12:53:45;66331.75;;;-142.58;100.00
15998;BME280;8103;51.340;12.326;2023-03-20T13:00:02;66331.75;;;-142.58;100.00
15998;BME280;8103;51.340;12.326;2023-03-20T13:02:56;66331.75;;;-142.58;100.00
15998;BME280;8103;51.340;12.326;2023-03-20T13:05:39;66331.75;;;-142.58;100.00
15998;BME280;8103;51.340;12.326;2023-03-20T13:18:24;66331.75;;;-142.58;100.00
15998;BME280;8103;51.340;12.326;2023-03-20T13:34:26;66331.75;;;-142.58;100.00
15998;BME280;8103;51.340;12.326;2023-03-20T13:37:15;66331.75;;;-142.58;100.00
15998;BME280;8103;51.340;12.326;2023-03-20T13:40:20;66331.75;;;-142.58;100.00
15998;BME280;8103;51.340;12.326;2023-03-20T13:43:33;66331.75;;;-142.58;100.00
15998;BME280;8103;51.340;12.326;2023-03-20T13:48:42;66331.75;;;-142.58;100.00
15998;BME280;8103;51.340;12.326;2023-03-20T13:57:28;66331.75;;;-142.58;100.00
15998;BME280;8103;51.340;12.326;2023-03-20T14:00:27;66331.75;;;-142.58;100.00
15998;BME280;8103;51.340;12.326;2023-03-20T14:05:39;66331.75;;;-142.58;100.00
15998;BME280;8103;51.340;12.326;2023-03-20T14:08:23;66331.75;;;-142.58;100.00
15998;BME280;8103;51.340;12.326;2023-03-20T14:11:15;66331.75;;;-142.58;100.00
15998;BME280;8103;51.340;12.326;2023-03-20T14:14:12;66331.75;;;-142.58;100.00
15998;BME280;8103;51.340;12.326;2023-03-20T14:16:41;66331.75;;;-142.58;100.00
15998;BME280;8103;51.340;12.326;2023-03-20T14:19:18;66331.75;;;-142.58;100.00
15998;BME280;8103;51.340;12.326;2023-03-20T14:21:53;66331.75;;;-142.58;100.00
15998;BME280;8103;51.340;12.326;2023-03-20T14:24:23;66331.75;;;-142.58;100.00
15998;BME280;8103;51.340;12.326;2023-03-20T14:26:58;66331.75;;;-142.58;100.00
15998;BME280;8103;51.340;12.326;2023-03-20T14:29:37;100352.97;;;18.65;58.84
15998;BME280;8103;51.340;12.326;2023-03-20T14:35:21;100349.31;;;19.38;56.41
15998;BME280;8103;51.340;12.326;2023-03-20T14:38:32;100348.38;;;18.93;57.19
15998;BME280;8103;51.340;12.326;2023-03-20T14:41:29;100349.16;;;18.53;58.57
15998;BME280;8103;51.340;12.326;2023-03-20T14:44:29;100341.88;;;18.03;60.08
15998;BME280;8103;51.340;12.326;2023-03-20T14:47:25;100350.16;;;17.61;61.47
15998;BME280;8103;51.340;12.326;2023-03-20T14:53:25;100340.72;;;17.16;63.28
15998;BME280;8103;51.340;12.326;2023-03-20T14:58:56;100339.25;;;17.05;64.73
15998;BME280;8103;51.340;12.326;2023-03-20T15:04:32;100344.63;;;17.29;63.86
15998;BME280;8103;51.340;12.326;2023-03-20T15:07:24;100343.13;;;16.99;64.73
15998;BME280;8103;51.340;12.326;2023-03-20T15:09:57;100343.16;;;16.52;66.00
15998;BME280;8103;51.340;12.326;2023-03-20T15:12:29;100339.66;;;16.18;67.33
15998;BME280;8103;51.340;12.326;2023-03-20T15:15:18;100335.66;;;15.82;68.95